• Join FlightAware (Why Join?)
  • Login
  • US Flag 
05:48PM EDT


 

Airport Tracker/Info


-or-


 

Live Flight TrackerFlight Track Log ✈ SWA508 ✈ 29-Apr-2013 ✈ KPIT - KMDW

Flight Track Log - Related Links

Times and Time Zones

All times are in EDT time to prevent confusion due to time zone crossing. See the SWA508 flight status page for this flight to view local times or setup timezone preferences in your user account.

Time Position Orientation Groundspeed Altitude Reporting Facility
EDT Latitude Longitude Course Direction KTS MPH feet Rate Location/Type
11:00AM 40.5194 -80.3592 285° West 171 197 4,500  Level Cleveland Center
11:01AM 40.5403 -80.4519 286° West 222 255 7,900 3,240 Climbing Cleveland Center
11:02AM 40.5611 -80.5531 285° West 262 302 11,000 2,820 Climbing Cleveland Center
11:03AM 40.5861 -80.6733 285° West 306 352 13,600 3,000 Climbing Cleveland Center
11:04AM 40.6131 -80.7992 286° West 342 394 17,100 3,120 Climbing Cleveland Center
11:05AM 40.6486 -81.0430 285° West  Level FlightAware Approximate
11:05AM 40.6400 -80.9306 285° West 360 414 19,900  Level Cleveland Center
11:06AM 40.6644 -81.0675 283° West 379 436 22,600 2,520 Climbing Cleveland Center
11:07AM 40.6950 -81.2103 286° West 402 463 25,000 2,220 Climbing Cleveland Center
11:08AM 40.7233 -81.3583 284° West 407 468 27,100 2,340 Climbing Cleveland Center
11:09AM 40.7617 -81.5014 290° West 415 478 29,700 2,400 Climbing Cleveland Center
11:10AM 40.8083 -81.6531 292° West 415 478 31,900 1,140 Climbing Cleveland Center
11:11AM 40.8381 -81.8044 285° West 415 478 32,000  Climbing Cleveland Center
11:12AM 40.8656 -81.9558 284° West 420 483 32,000  Level Cleveland Center
11:13AM 40.8928 -82.1075 283° West 425 489 32,000  Level Cleveland Center
11:14AM 40.9178 -82.2619 282° West 431 496 32,000  Level Cleveland Center
11:15AM 40.9467 -82.4111 284° West 431 496 32,000  Level Cleveland Center
11:16AM 40.9694 -82.5494 282° West 431 496 32,000  Level Cleveland Center
11:17AM 40.9958 -82.7014 283° West 431 496 32,000  Level Cleveland Center
11:18AM 41.0242 -82.8539 284° West 431 496 32,000  Level Cleveland Center
11:19AM 41.0503 -83.0061 283° West 431 496 32,000  Level Cleveland Center
11:20AM 41.0761 -83.1586 283° West 431 496 32,000  Level Cleveland Center
11:21AM 41.1017 -83.3222 282° West 431 496 32,000  Level Cleveland Center
11:22AM 41.1269 -83.4778 282° West 431 496 32,000  Level Cleveland Center
11:23AM 41.1522 -83.6278 283° West 431 496 32,000  Level Cleveland Center
11:24AM 41.1792 -83.7864 283° West 431 496 32,000  Level Cleveland Center
11:25AM 41.2083 -83.9339 285° West 425 489 32,000  Level Cleveland Center
11:26AM 41.2444 -84.1703 282° West 427 491 32,000  Level Chicago Center
11:27AM 41.2683 -84.3233 282° West 425 489 32,000  Level Chicago Center
11:28AM 41.2942 -84.4783 283° West 429 494 32,000 -360 Level Chicago Center
11:29AM 41.3175 -84.6308 282° West 424 488 31,300 -1,020 Descending Chicago Center
11:31AM 41.3406 -84.7803 282° West 415 478 30,000 -660 Descending Chicago Center
11:32AM 41.3628 -84.9289 281° West 410 472 30,000  Level Chicago Center
11:33AM 41.3850 -85.0789 281° West 411 473 30,000 -1,260 Level Chicago Center
11:34AM 41.4119 -85.2556 282° West 405 466 27,400 -2,460 Descending Chicago Center
11:35AM 41.4328 -85.3992 281° West 395 455 25,000 -2,040 Descending Chicago Center
11:36AM 41.4533 -85.5406 281° West 385 443 23,300 -1,380 Descending Chicago Center
11:37AM 41.4739 -85.6756 282° West 370 426 22,200 -1,560 Descending Chicago Center
11:38AM 41.4928 -85.8075 281° West 360 414 20,200 -1,980 Descending Chicago Center
11:39AM 41.5117 -85.9364 281° West 353 406 18,200 -1,980 Descending Chicago Center
11:40AM 41.5250 -86.0622 278° West 345 397 16,200 -1,980 Descending Chicago Center
11:41AM 41.5233 -86.1894 269° West 341 392 14,200 -1,980 Descending Chicago Center
11:42AM 41.5236 -86.3128 270° West 335 386 12,200 -1,920 Descending Chicago Center
11:43AM 41.5225 -86.4575 269° West 325 374 10,300 -1,080 Descending Chicago Center
11:44AM 41.5208 -86.5733 269° West 315 362 10,000 -180 Descending Chicago Center
11:45AM 41.5203 -86.6897 270° West 314 361 10,000  Level Chicago Center
11:46AM 41.5197 -86.8150 270° West 308 354 10,000 -360 Level Chicago Center
11:47AM 41.5178 -86.9172 269° West 282 325 9,300 -1,020 Descending Chicago Center
11:48AM 41.5169 -87.0192 269° West 277 319 7,900 -1,320 Descending Chicago Center
11:49AM 41.5175 -87.1236 270° West 282 325 6,600 -1,140 Descending Chicago Center
11:50AM 41.5333 -87.2000 286° West 264 304 6,000 -360 Descending Chicago TRACON
11:51AM 41.5667 -87.2833 298° West 258 297 6,000 -780 Level Chicago TRACON
11:52AM 41.6000 -87.3833 294° West 278 320 4,400 -1,380 Descending Chicago TRACON
11:52AM 41.6075 -87.4072 293° West 261 300 4,100 -300 Descending Chicago Center
11:53AM 41.6367 -87.4978 293° West 265 305 4,000 -60 Descending Chicago Center
11:54AM 41.6642 -87.5844 293° West 262 302 4,000  Level Chicago Center
11:55AM 41.7000 -87.6333 314° West 207 238 4,000 -840 Level Chicago TRACON
11:56AM 41.7333 -87.6667 323° Northwest 189 217 2,800 -1,020 Descending Chicago TRACON
11:57AM 41.7667 -87.6667 360° North 174 200 2,200 -480 Descending Chicago TRACON
11:58AM 41.8167 -87.6833 346° North 150 173 1,900 -600 Descending Chicago TRACON
11:59AM 41.8000 -87.7333 246° West 134 154 1,100 -840 Descending Chicago TRACON
12:01PM 41.7833 -87.7500 246° West  Level FlightAware Approximate